Terminal Aerodrome Forecast
Issued by NWS

Home | Current Version | Previous Version | Text Only | Print | Product List | Glossary On
Versions: 1 2 3 4 5 6 7 8 9 10 11 12 13 14 15
000
FTUS46 KSTO 041500 AAB
TAFSAC
TAF AMD
KSAC 041536Z 0416/0512 19008KT P6SM SCT010
      TEMPO 0416/0418 BKN009
     FM041900 22008KT P6SM SCT014
     FM042100 23007KT P6SM SKC
     FM051100 18008KT P6SM BKN010=

USA.gov is the U.S. government's official web portal to all federal, state and local government web resources and services.